Time;durP1;ratioP1;P1;durP2;ratioP2;P2;SDS_P1;SDS_P2;PMS_P1;PMS_P2;Temp;Humidity;BMP_temperature;BMP_pressure;BME280_temperature;BME280_humidity;BME280_pressure;Samples;Min_cycle;Max_cycle;Signal;HPM_P1;HPM_P2
2022/09/09 00:01:00;;;;;;;97.43;31.10;;;16.70;99.90;;;;;;10361309;28;20045;-83
2022/09/09 00:06:13;;;;;;;97.90;29.92;;;16.70;99.90;;;;;;10363561;28;20041;-83
2022/09/09 00:11:20;;;;;;;70.22;26.27;;;16.60;99.90;;;;;;10356502;28;20431;-83
2022/09/09 00:16:25;;;;;;;81.25;28.55;;;16.60;99.90;;;;;;10361577;28;20481;-82
2022/09/09 00:21:35;;;;;;;52.30;19.97;;;16.50;99.90;;;;;;10363449;28;20461;-82
2022/09/09 00:26:46;;;;;;;80.93;30.08;;;16.50;99.90;;;;;;10361864;28;20057;-83
2022/09/09 00:31:47;;;;;;;82.78;28.90;;;16.50;99.90;;;;;;10361286;28;20034;-84
2022/09/09 00:36:52;;;;;;;68.00;26.27;;;16.50;99.90;;;;;;10363021;28;20034;-82
2022/09/09 00:41:55;;;;;;;66.90;24.75;;;16.60;99.90;;;;;;10352977;28;20033;-82
2022/09/09 00:46:55;;;;;;;75.72;25.20;;;16.60;99.90;;;;;;10361959;28;20130;-82
2022/09/09 00:52:10;;;;;;;104.40;30.92;;;16.60;99.90;;;;;;10363059;28;20067;-83
2022/09/09 00:57:29;;;;;;;97.47;30.37;;;16.60;99.90;;;;;;10363460;28;20417;-83
2022/09/09 01:02:56;;;;;;;78.10;26.40;;;16.60;99.90;;;;;;10365023;28;20040;-84
2022/09/09 01:08:01;;;;;;;58.75;25.13;;;16.60;99.90;;;;;;10370216;28;20037;-84
2022/09/09 01:13:12;;;;;;;72.10;28.20;;;16.70;99.90;;;;;;10368351;28;20042;-85
2022/09/09 01:18:17;;;;;;;76.78;28.95;;;16.70;99.90;;;;;;10365821;28;20052;-84
2022/09/09 01:23:44;;;;;;;76.28;27.42;;;16.70;99.90;;;;;;10369140;28;20470;-83
2022/09/09 01:28:48;;;;;;;91.00;30.55;;;16.70;99.90;;;;;;10367279;28;20073;-83
2022/09/09 01:33:49;;;;;;;88.25;36.10;;;16.70;99.90;;;;;;10366658;28;20033;-84
2022/09/09 01:38:50;;;;;;;109.35;40.47;;;16.80;99.90;;;;;;10368796;28;20133;-83
2022/09/09 01:43:53;;;;;;;119.13;38.72;;;16.80;99.90;;;;;;10368100;28;20033;-83
2022/09/09 01:48:55;;;;;;;162.20;47.38;;;16.80;99.90;;;;;;10368228;28;20029;-83
2022/09/09 01:53:55;;;;;;;132.13;41.67;;;16.80;99.90;;;;;;10369009;28;20022;-83
2022/09/09 01:59:05;;;;;;;188.25;53.45;;;16.90;99.90;;;;;;10366028;28;20041;-84
2022/09/09 02:04:17;;;;;;;206.18;60.75;;;16.80;99.90;;;;;;10362612;28;20120;-84
2022/09/09 02:09:22;;;;;;;218.40;62.40;;;16.80;99.90;;;;;;10366551;28;20065;-83
2022/09/09 02:14:30;;;;;;;156.05;49.83;;;16.80;99.90;;;;;;10359163;28;20073;-83
2022/09/09 02:19:42;;;;;;;134.93;42.00;;;16.80;99.90;;;;;;10366820;28;20042;-83
2022/09/09 02:24:43;;;;;;;136.73;40.50;;;16.70;99.90;;;;;;10367251;28;20073;-83
2022/09/09 02:29:47;;;;;;;124.55;38.22;;;16.70;99.90;;;;;;10366055;28;20037;-83
2022/09/09 02:34:56;;;;;;;151.73;43.85;;;16.60;99.90;;;;;;10362804;28;20159;-84
2022/09/09 02:39:57;;;;;;;152.13;42.53;;;16.60;99.90;;;;;;10357032;28;20498;-83
2022/09/09 02:44:58;;;;;;;159.82;43.20;;;16.50;99.90;;;;;;10365307;28;20025;-85
2022/09/09 02:50:18;;;;;;;180.07;48.40;;;16.50;99.90;;;;;;10363376;28;20029;-83
2022/09/09 02:55:45;;;;;;;126.43;39.78;;;16.50;99.90;;;;;;10365332;28;20073;-84
2022/09/09 03:00:47;;;;;;;161.05;45.17;;;16.50;99.90;;;;;;10362265;28;20038;-82
2022/09/09 03:05:48;;;;;;;135.52;41.10;;;16.40;99.90;;;;;;10365387;28;20030;-84
2022/09/09 03:10:49;;;;;;;155.68;45.42;;;16.40;99.90;;;;;;10361221;28;20438;-83
2022/09/09 03:15:49;;;;;;;130.60;44.08;;;16.40;99.90;;;;;;10363517;28;20394;-84
2022/09/09 03:20:50;;;;;;;128.57;43.00;;;16.40;99.90;;;;;;10363213;28;20053;-86
2022/09/09 03:25:52;;;;;;;189.85;53.05;;;16.40;99.90;;;;;;10363326;28;20060;-84
2022/09/09 03:30:57;;;;;;;141.25;44.58;;;16.40;99.90;;;;;;10362371;28;20056;-86
2022/09/09 03:35:58;;;;;;;141.18;46.03;;;16.40;99.90;;;;;;10364156;28;20564;-86
2022/09/09 03:40:58;;;;;;;163.00;47.78;;;16.40;99.90;;;;;;10362465;28;20063;-86
2022/09/09 03:45:59;;;;;;;136.65;41.53;;;16.30;99.90;;;;;;10361490;28;20025;-85
2022/09/09 03:51:01;;;;;;;141.80;42.83;;;16.30;99.90;;;;;;10362215;28;20562;-87
2022/09/09 03:56:02;;;;;;;163.02;44.92;;;16.20;99.90;;;;;;10362479;28;20029;-88
2022/09/09 04:01:10;;;;;;;138.05;40.15;;;16.20;99.90;;;;;;10362422;28;20044;-84
2022/09/09 04:06:13;;;;;;;128.43;41.58;;;16.20;99.90;;;;;;10364045;28;20030;-85
2022/09/09 04:11:13;;;;;;;132.52;40.45;;;16.10;99.90;;;;;;10358474;28;20030;-86
2022/09/09 04:16:14;;;;;;;135.63;40.97;;;16.00;99.90;;;;;;10362672;28;20852;-85
2022/09/09 04:21:16;;;;;;;115.53;37.10;;;15.90;99.90;;;;;;10362069;28;20053;-86
2022/09/09 04:26:16;;;;;;;329.25;62.83;;;15.80;99.90;;;;;;10360037;28;20042;-85
2022/09/09 04:31:23;;;;;;;173.18;43.67;;;15.70;99.90;;;;;;10354075;28;20026;-86
2022/09/09 04:36:23;;;;;;;244.93;51.13;;;15.60;99.90;;;;;;10375892;28;20481;-88
2022/09/09 04:41:24;;;;;;;137.98;39.65;;;15.40;99.90;;;;;;10359955;28;20068;-88
2022/09/09 04:46:25;;;;;;;220.40;50.42;;;15.50;99.90;;;;;;10360227;28;20386;-86
2022/09/09 04:51:26;;;;;;;136.20;40.88;;;15.50;99.90;;;;;;10349047;28;20037;-85
2022/09/09 04:56:28;;;;;;;128.73;41.97;;;15.40;99.90;;;;;;10362272;28;20117;-88
2022/09/09 05:01:28;;;;;;;197.15;51.15;;;15.60;99.90;;;;;;10361394;28;20493;-85
2022/09/09 05:06:32;;;;;;;168.35;48.75;;;15.70;99.90;;;;;;10363279;28;20084;-85
2022/09/09 05:11:36;;;;;;;178.25;50.15;;;15.80;99.90;;;;;;10356238;28;20025;-88
2022/09/09 05:16:37;;;;;;;168.43;47.00;;;15.90;99.90;;;;;;10360284;28;20053;-85
2022/09/09 05:21:37;;;;;;;198.07;52.55;;;15.90;99.90;;;;;;10360745;28;20128;-85
2022/09/09 05:26:38;;;;;;;148.55;47.60;;;16.00;99.90;;;;;;10348855;28;20537;-85
2022/09/09 05:31:39;;;;;;;158.63;45.05;;;16.00;99.90;;;;;;10362505;28;20034;-85
2022/09/09 05:36:39;;;;;;;189.35;51.95;;;16.10;99.90;;;;;;10361672;28;20058;-86
2022/09/09 05:41:40;;;;;;;123.07;42.20;;;16.30;99.90;;;;;;10363713;28;20033;-85
2022/09/09 05:46:40;;;;;;;138.27;42.42;;;16.40;99.90;;;;;;10369118;28;20022;-86
2022/09/09 05:51:42;;;;;;;108.43;37.33;;;16.50;99.90;;;;;;10360761;28;20033;-87
2022/09/09 05:56:43;;;;;;;113.07;37.80;;;16.50;99.90;;;;;;10367843;28;20141;-86
2022/09/09 06:01:45;;;;;;;83.35;34.90;;;16.50;99.90;;;;;;10369088;28;20418;-85
2022/09/09 06:06:45;;;;;;;82.45;37.08;;;16.50;99.90;;;;;;10369330;28;20037;-84
2022/09/09 06:11:46;;;;;;;86.47;36.90;;;16.40;99.90;;;;;;10366214;28;20056;-86
2022/09/09 06:16:46;;;;;;;75.10;36.58;;;16.50;99.90;;;;;;10367483;28;20037;-85
2022/09/09 06:21:47;;;;;;;86.07;35.25;;;16.50;99.90;;;;;;10366249;28;20068;-85
2022/09/09 06:26:48;;;;;;;82.07;36.13;;;16.50;99.90;;;;;;10368675;28;20053;-85
2022/09/09 06:31:48;;;;;;;74.07;34.70;;;16.40;99.90;;;;;;10366785;28;20034;-86
2022/09/09 06:36:49;;;;;;;70.32;33.83;;;16.50;99.90;;;;;;10366060;28;20119;-86
2022/09/09 06:41:52;;;;;;;62.85;33.13;;;16.60;99.90;;;;;;10366495;28;20040;-87
2022/09/09 06:46:53;;;;;;;61.45;30.27;;;16.70;99.90;;;;;;10366837;28;20034;-86
2022/09/09 06:51:54;;;;;;;48.78;28.65;;;16.90;99.90;;;;;;10366693;28;20041;-86
2022/09/09 06:56:54;;;;;;;61.60;33.42;;;17.00;99.90;;;;;;10363474;28;20058;-86
2022/09/09 07:01:55;;;;;;;52.15;30.10;;;17.00;99.90;;;;;;10365079;28;20040;-86
2022/09/09 07:06:56;;;;;;;54.17;29.60;;;17.10;99.90;;;;;;10358996;28;20062;-86
2022/09/09 07:18:19;;;;;;;39.30;22.27;;;17.50;99.90;;;;;;10333596;28;20484;-88
2022/09/09 07:23:20;;;;;;;33.78;19.45;;;17.70;99.90;;;;;;10365603;28;20026;-87
2022/09/09 07:28:21;;;;;;;32.88;20.75;;;17.70;99.90;;;;;;10364332;28;20503;-89
2022/09/09 07:33:22;;;;;;;31.30;19.77;;;17.80;99.90;;;;;;10365766;28;20029;-87
2022/09/09 07:38:23;;;;;;;26.33;16.05;;;18.00;99.90;;;;;;10365264;28;20034;-88
2022/09/09 07:43:26;;;;;;;23.17;15.48;;;18.30;99.90;;;;;;10363423;28;20022;-86
2022/09/09 07:48:27;;;;;;;24.75;15.93;;;18.40;99.90;;;;;;10364283;28;20026;-88
2022/09/09 07:53:28;;;;;;;24.67;15.38;;;18.70;99.90;;;;;;10363292;28;20029;-87
2022/09/09 07:58:28;;;;;;;18.95;13.73;;;18.90;99.90;;;;;;10364934;28;20033;-90
2022/09/09 08:03:29;;;;;;;17.80;13.50;;;19.20;99.90;;;;;;10361696;28;20025;-88
2022/09/09 08:08:33;;;;;;;12.90;10.50;;;19.60;99.90;;;;;;10362754;28;20026;-88
2022/09/09 08:13:35;;;;;;;13.68;9.75;;;19.90;99.90;;;;;;10362429;28;20026;-91
2022/09/09 08:18:36;;;;;;;10.82;8.85;;;20.20;99.90;;;;;;10366099;28;20055;-91
2022/09/09 08:23:36;;;;;;;7.97;6.57;;;20.70;99.90;;;;;;10364466;28;20693;-91
2022/09/09 08:28:37;;;;;;;9.52;7.40;;;21.10;99.90;;;;;;10360970;28;20054;-89
2022/09/09 08:34:09;;;;;;;9.52;7.22;;;21.20;99.90;;;;;;10365206;28;20486;-88
2022/09/09 08:39:12;;;;;;;8.38;6.40;;;21.10;99.90;;;;;;10360431;28;20541;-90
2022/09/09 08:50:28;;;;;;;7.18;5.93;;;21.00;99.90;;;;;;10361551;28;20490;-89
2022/09/09 08:55:48;;;;;;;6.65;5.68;;;21.30;99.90;;;;;;10362660;28;20029;-88
2022/09/09 09:01:30;;;;;;;6.63;5.55;;;21.30;99.90;;;;;;10374713;28;20500;-88
2022/09/09 09:07:06;;;;;;;5.38;4.60;;;21.20;99.90;;;;;;10379227;28;20052;-90
2022/09/09 09:12:17;;;;;;;8.65;4.80;;;21.10;99.90;;;;;;10382479;28;20037;-90
2022/09/09 09:17:25;;;;;;;4.80;4.38;;;21.40;99.90;;;;;;10405156;28;20040;-90
2022/09/09 09:22:48;;;;;;;4.65;3.38;;;21.70;99.90;;;;;;10410955;28;20061;-90
2022/09/09 09:27:49;;;;;;;6.45;3.55;;;21.80;99.90;;;;;;10389247;28;20487;-92
2022/09/09 09:32:58;;;;;;;3.78;3.47;;;21.60;99.90;;;;;;10390583;28;20029;-89
2022/09/09 09:38:00;;;;;;;5.50;3.47;;;21.50;99.90;;;;;;10408378;28;20037;-90
2022/09/09 09:43:01;;;;;;;5.13;3.72;;;21.40;99.90;;;;;;10390940;28;20030;-89
2022/09/09 09:48:10;;;;;;;5.13;3.40;;;21.40;99.90;;;;;;10406292;28;20067;-90
2022/09/09 09:53:43;;;;;;;5.00;3.80;;;21.60;99.90;;;;;;10407020;28;20033;-88
2022/09/09 09:59:18;;;;;;;6.43;4.05;;;21.90;99.90;;;;;;10389804;28;20061;-90
2022/09/09 10:10:28;;;;;;;4.75;3.53;;;22.00;99.90;;;;;;10703071;23;20497;-89
2022/09/09 10:21:25;;;;;;;5.00;3.08;;;21.90;99.90;;;;;;10907347;23;20113;-90
2022/09/09 10:44:25;;;;;;;7.57;4.10;;;22.40;99.90;;;;;;11528719;22;20024;31
2022/09/09 11:01:59;;;;;;;7.47;4.50;;;22.40;99.90;;;;;;10204234;29;20079;-85
2022/09/09 11:07:05;;;;;;;5.28;3.47;;;22.10;99.90;;;;;;10206404;29;20032;-87
2022/09/09 11:12:15;;;;;;;3.25;2.85;;;22.20;99.90;;;;;;10205954;29;20039;-85
2022/09/09 11:23:45;;;;;;;4.63;2.60;;;23.50;99.90;;;;;;10279998;23;20620;-87
2022/09/09 11:29:05;;;;;;;2.88;2.58;;;23.20;99.90;;;;;;10353935;28;20720;-85
2022/09/09 11:40:21;;;;;;;4.60;2.60;;;23.20;99.90;;;;;;10316111;28;20510;-86
2022/09/09 11:45:29;;;;;;;2.72;2.50;;;23.10;99.90;;;;;;10333500;28;20026;-86
2022/09/09 11:50:36;;;;;;;2.47;2.13;;;23.50;99.90;;;;;;10326868;28;20478;-85
2022/09/09 11:55:37;;;;;;;3.45;2.38;;;23.70;99.90;;;;;;10322601;28;20034;-84
2022/09/09 12:00:44;;;;;;;5.25;2.72;;;23.60;99.90;;;;;;10328984;28;20030;-86
2022/09/09 12:05:58;;;;;;;3.70;2.50;;;23.70;99.90;;;;;;10306341;28;20026;-85
2022/09/09 12:35:20;;;;;;;5.50;2.65;;;24.20;99.90;;;;;;9747667;30;20048;-84
2022/09/09 12:40:35;;;;;;;2.72;2.47;;;24.20;99.90;;;;;;9748621;30;20079;-84
2022/09/09 12:45:41;;;;;;;3.10;2.47;;;24.00;99.90;;;;;;9726096;30;20086;-84
2022/09/09 12:50:46;;;;;;;3.25;2.47;;;23.90;99.90;;;;;;9723505;30;20095;-85
2022/09/09 12:55:51;;;;;;;;;;;24.10;99.90;;;;;;9747860;30;20038;-84
2022/09/09 13:00:55;;;;;;;;;;;23.50;99.90;;;;;;9747804;30;19954;-84
2022/09/09 13:06:12;;;;;;;4.22;2.72;;;23.30;99.90;;;;;;9746928;30;20373;-84
2022/09/09 13:11:25;;;;;;;3.15;2.45;;;23.30;99.90;;;;;;9734949;30;20566;-83
2022/09/09 13:16:31;;;;;;;6.13;3.00;;;23.50;99.90;;;;;;9742105;30;20037;-84
2022/09/09 13:21:34;;;;;;;6.55;3.00;;;23.60;99.00;;;;;;9739966;30;20106;-84
2022/09/09 13:32:32;;;;;;;5.57;3.00;;;23.40;98.10;;;;;;9783167;30;20041;-83
2022/09/09 13:37:38;;;;;;;5.32;3.10;;;23.50;97.80;;;;;;9785312;30;20041;-83
2022/09/09 13:48:19;;;;;;;4.63;3.05;;;23.10;96.40;;;;;;9778581;30;20049;-83
2022/09/09 13:53:20;;;;;;;5.97;2.90;;;23.00;96.20;;;;;;9784104;30;20658;-84
2022/09/09 13:58:22;;;;;;;4.90;2.88;;;22.90;97.50;;;;;;9780252;30;20048;-84
2022/09/09 14:03:23;;;;;;;7.68;3.10;;;22.90;97.50;;;;;;9786140;30;20123;-82
2022/09/09 14:08:26;;;;;;;5.30;3.30;;;22.90;97.70;;;;;;9791083;30;20032;-84
2022/09/09 14:13:27;;;;;;;2.78;2.30;;;22.90;97.90;;;;;;9773153;30;20059;-84
2022/09/09 14:18:29;;;;;;;3.28;2.20;;;22.90;97.10;;;;;;9790122;30;20565;-83
2022/09/09 14:23:29;;;;;;;2.47;2.28;;;22.80;96.80;;;;;;9790820;30;20037;-84
2022/09/09 14:28:30;;;;;;;2.63;2.40;;;22.80;96.60;;;;;;9782427;30;20056;-84
2022/09/09 14:33:31;;;;;;;4.13;2.55;;;22.70;96.20;;;;;;9788116;30;20040;-84
2022/09/09 14:44:15;;;;;;;4.40;2.40;;;22.70;95.80;;;;;;11858083;24;20024;-86
2022/09/09 14:49:16;;;;;;;4.63;2.50;;;22.70;94.80;;;;;;9815153;30;20036;-83
2022/09/09 14:54:17;;;;;;;6.60;2.90;;;22.70;94.20;;;;;;9812737;30;20032;-81
2022/09/09 14:59:17;;;;;;;3.70;2.60;;;22.70;94.90;;;;;;9818930;30;20609;-81
2022/09/09 15:04:18;;;;;;;4.70;2.53;;;22.70;95.50;;;;;;9824516;30;20051;-80
2022/09/09 15:09:18;;;;;;;4.10;2.65;;;22.70;94.10;;;;;;9824138;30;20060;-80
2022/09/09 15:14:19;;;;;;;2.70;2.33;;;22.70;94.50;;;;;;9822392;30;20563;-80
2022/09/09 15:19:19;;;;;;;2.53;2.15;;;22.60;94.50;;;;;;9817030;30;20047;-80
2022/09/09 15:24:20;;;;;;;3.70;2.58;;;22.50;94.20;;;;;;9843566;30;20051;-80
2022/09/09 15:29:20;;;;;;;2.95;2.35;;;22.40;93.60;;;;;;9861727;30;20054;-81
2022/09/09 15:34:21;;;;;;;4.38;2.75;;;22.30;93.80;;;;;;9860289;30;20623;-80
2022/09/09 15:39:22;;;;;;;4.63;2.78;;;22.10;94.90;;;;;;9854244;30;20048;-81
2022/09/09 15:44:25;;;;;;;3.78;2.72;;;21.80;96.50;;;;;;9858928;30;20491;-81
2022/09/09 15:49:29;;;;;;;3.63;2.40;;;21.30;98.20;;;;;;9858193;30;20051;-85
2022/09/09 15:54:35;;;;;;;3.43;2.60;;;20.90;98.80;;;;;;9841006;30;20111;-85
2022/09/09 15:59:35;;;;;;;4.75;3.13;;;20.40;99.60;;;;;;9858952;30;20050;-86
2022/09/09 16:04:42;;;;;;;7.43;3.10;;;20.00;99.90;;;;;;9842485;30;20043;-86
2022/09/09 16:09:43;;;;;;;6.10;3.83;;;19.60;99.90;;;;;;9842024;30;20077;-87
2022/09/09 16:15:15;;;;;;;6.88;3.80;;;19.30;99.90;;;;;;9856281;30;20061;-87
2022/09/09 16:20:42;;;;;;;4.85;3.33;;;19.00;99.90;;;;;;9839082;30;20082;-88
2022/09/09 16:31:53;;;;;;;6.43;3.17;;;18.60;99.90;;;;;;9728411;30;20047;-86
2022/09/09 16:36:54;;;;;;;5.57;3.63;;;18.30;99.90;;;;;;9835558;30;20122;-86
2022/09/09 16:41:54;;;;;;;5.70;3.72;;;18.20;99.90;;;;;;9833026;30;20040;-85
2022/09/09 16:46:55;;;;;;;5.80;3.20;;;18.00;99.90;;;;;;9838141;30;20192;-86
2022/09/09 16:51:59;;;;;;;3.58;2.90;;;18.00;99.90;;;;;;9836999;30;20047;-86
2022/09/09 16:57:00;;;;;;;4.60;3.50;;;17.80;99.90;;;;;;9839994;30;20032;-86
2022/09/09 17:08:14;;;;;;;8.05;3.80;;;17.60;99.90;;;;;;9846342;30;20112;-87
2022/09/09 17:13:36;;;;;;;5.80;3.97;;;17.40;99.90;;;;;;9842273;30;20488;-84
2022/09/09 17:18:37;;;;;;;6.07;3.67;;;17.30;99.90;;;;;;9858685;30;20048;-86
2022/09/09 17:23:38;;;;;;;4.63;3.17;;;17.10;99.90;;;;;;9841020;30;20035;-86
2022/09/09 17:28:41;;;;;;;5.00;3.47;;;17.00;99.90;;;;;;9845075;30;20047;-86
2022/09/09 17:33:47;;;;;;;5.40;3.40;;;16.90;99.90;;;;;;9859284;30;20048;-86
2022/09/09 17:39:31;;;;;;;5.63;3.85;;;16.80;99.90;;;;;;9860070;30;20392;-89
2022/09/09 17:44:32;;;;;;;5.72;3.50;;;16.80;99.90;;;;;;9849201;30;20466;-84
2022/09/09 17:49:33;;;;;;;5.88;4.15;;;16.80;99.90;;;;;;9846994;30;20059;-83
2022/09/09 17:54:34;;;;;;;4.97;3.92;;;16.70;99.90;;;;;;9864667;30;20040;-82
2022/09/09 17:59:35;;;;;;;8.23;3.97;;;16.60;99.90;;;;;;9863470;30;20082;-83
2022/09/09 18:04:36;;;;;;;9.90;4.95;;;16.60;99.90;;;;;;9863154;30;20519;-83
2022/09/09 18:09:38;;;;;;;14.07;6.20;;;16.50;99.90;;;;;;9847876;30;20047;-85
2022/09/09 18:14:38;;;;;;;12.40;7.07;;;16.40;99.90;;;;;;9856003;30;20051;-86
2022/09/09 18:19:39;;;;;;;11.73;7.13;;;16.30;99.90;;;;;;9855494;30;20669;-85
2022/09/09 18:24:40;;;;;;;10.45;6.70;;;16.20;99.90;;;;;;9859475;30;20119;-85
2022/09/09 18:29:40;;;;;;;10.60;7.07;;;16.20;99.90;;;;;;9845317;30;20024;-85
2022/09/09 18:34:41;;;;;;;13.13;6.93;;;16.20;99.90;;;;;;9847207;30;20036;-83
2022/09/09 18:39:42;;;;;;;10.77;7.57;;;16.20;99.90;;;;;;9856855;30;20538;-82
2022/09/09 18:44:42;;;;;;;11.25;6.93;;;16.30;99.90;;;;;;9860295;30;20039;-84
2022/09/09 18:49:45;;;;;;;7.85;5.65;;;16.30;99.90;;;;;;9857351;30;20052;-82
2022/09/09 18:54:47;;;;;;;8.57;6.38;;;16.20;99.90;;;;;;9863563;30;20111;-83
2022/09/09 18:59:48;;;;;;;8.07;5.72;;;16.20;99.90;;;;;;9863467;30;20054;-84
2022/09/09 19:04:49;;;;;;;8.10;5.75;;;16.30;99.90;;;;;;9862662;30;20032;-82
2022/09/09 19:09:49;;;;;;;6.70;5.38;;;16.20;99.90;;;;;;9863413;30;20044;-83
2022/09/09 19:14:50;;;;;;;9.65;5.45;;;16.30;99.90;;;;;;9861953;30;20040;-86
2022/09/09 19:19:51;;;;;;;8.35;5.78;;;16.20;99.90;;;;;;9860338;30;20072;-85
2022/09/09 19:24:52;;;;;;;6.55;5.82;;;16.20;99.90;;;;;;9860669;30;20027;-86
2022/09/09 19:29:53;;;;;;;11.93;6.55;;;16.20;99.90;;;;;;9845841;30;20249;-86
2022/09/09 19:34:53;;;;;;;10.60;7.15;;;16.10;99.90;;;;;;9856872;30;20122;-86
2022/09/09 19:39:54;;;;;;;10.88;7.40;;;16.10;99.90;;;;;;9857178;30;20075;-84
2022/09/09 19:44:56;;;;;;;13.35;8.88;;;16.00;99.90;;;;;;9859771;30;20532;-84
2022/09/09 19:49:56;;;;;;;11.48;8.40;;;16.00;99.90;;;;;;9854578;30;20505;-84
2022/09/09 19:54:58;;;;;;;13.23;8.32;;;15.90;99.90;;;;;;9842165;30;20035;-83
2022/09/09 19:59:59;;;;;;;13.05;9.23;;;16.00;99.90;;;;;;9843821;30;20216;-83
2022/09/09 20:05:00;;;;;;;12.77;8.60;;;15.90;99.90;;;;;;9842249;30;20080;-84
2022/09/09 20:10:01;;;;;;;14.07;9.20;;;16.00;99.90;;;;;;9859521;30;20040;-84
2022/09/09 20:15:01;;;;;;;12.65;9.18;;;15.90;99.90;;;;;;9861002;30;20040;-84
2022/09/09 20:20:02;;;;;;;15.63;9.02;;;16.00;99.90;;;;;;9857361;30;20048;-85
2022/09/09 20:25:03;;;;;;;16.42;10.45;;;16.00;99.90;;;;;;9860309;30;20048;-84
2022/09/09 20:30:04;;;;;;;13.15;8.50;;;16.00;99.90;;;;;;9844927;30;20028;-85
2022/09/09 20:35:07;;;;;;;13.95;9.75;;;16.00;99.90;;;;;;9857984;30;20063;-83
2022/09/09 20:40:08;;;;;;;18.55;10.00;;;15.90;99.90;;;;;;9854785;30;20481;-84
2022/09/09 20:45:14;;;;;;;14.00;10.75;;;15.90;99.90;;;;;;9858392;30;20055;-84
2022/09/09 20:50:15;;;;;;;13.10;10.38;;;15.90;99.90;;;;;;9840938;30;20086;-84
2022/09/09 20:55:16;;;;;;;15.48;10.18;;;15.90;99.90;;;;;;9841727;30;20055;-84
2022/09/09 21:00:16;;;;;;;15.27;10.35;;;15.90;99.90;;;;;;9840013;30;20450;-84
2022/09/09 21:05:18;;;;;;;14.98;10.05;;;15.90;99.90;;;;;;9856776;30;20043;-83
2022/09/09 21:10:19;;;;;;;17.08;11.05;;;15.90;99.90;;;;;;9852163;30;20048;-84
2022/09/09 21:15:19;;;;;;;15.20;11.70;;;15.90;99.90;;;;;;9862111;30;20439;-85
2022/09/09 21:20:20;;;;;;;16.38;11.02;;;15.80;99.90;;;;;;9862515;30;20048;-84
2022/09/09 21:25:21;;;;;;;15.75;11.23;;;15.90;99.90;;;;;;9862548;30;20378;-83
2022/09/09 21:30:23;;;;;;;19.08;12.82;;;15.90;99.90;;;;;;9863609;30;20433;-84
2022/09/09 21:35:24;;;;;;;17.17;12.75;;;16.00;99.90;;;;;;9863204;30;20405;-83
2022/09/09 21:40:25;;;;;;;17.23;12.73;;;16.00;99.90;;;;;;9847715;30;20132;-84
2022/09/09 21:45:26;;;;;;;20.85;13.35;;;16.10;99.90;;;;;;9861217;30;20771;-84
2022/09/09 21:50:28;;;;;;;16.77;12.25;;;15.90;99.90;;;;;;9865068;30;20489;-84
2022/09/09 21:55:33;;;;;;;16.60;12.98;;;16.00;99.90;;;;;;9845021;30;20046;-84
2022/09/09 22:00:33;;;;;;;16.50;12.20;;;15.90;99.90;;;;;;9860028;30;20043;-84
2022/09/09 22:05:39;;;;;;;19.02;14.35;;;16.10;99.90;;;;;;9861271;30;20032;-83
2022/09/09 22:10:45;;;;;;;15.82;12.65;;;16.20;99.90;;;;;;9860025;30;20035;-83
2022/09/09 22:15:46;;;;;;;;;;;16.20;99.90;;;;;;9846079;30;21487;-83
2022/09/09 22:20:46;;;;;;;15.20;11.02;;;16.20;99.90;;;;;;9859505;30;19932;-83
2022/09/09 22:25:48;;;;;;;22.30;13.45;;;16.10;99.90;;;;;;9861064;30;20032;-83
2022/09/09 22:30:49;;;;;;;22.25;14.45;;;16.20;99.90;;;;;;9857589;30;20077;-83
2022/09/09 22:35:50;;;;;;;19.10;13.68;;;16.10;99.90;;;;;;9860775;30;20502;-83
2022/09/09 22:40:52;;;;;;;17.35;12.48;;;16.10;99.90;;;;;;9858158;30;20047;-84
2022/09/09 22:45:52;;;;;;;19.58;14.00;;;16.00;99.90;;;;;;9860589;30;20047;-83
2022/09/09 22:50:53;;;;;;;23.85;13.82;;;15.90;99.90;;;;;;9859869;30;20053;-82
2022/09/09 22:55:59;;;;;;;16.50;11.38;;;15.80;99.90;;;;;;9855719;30;20044;-83
2022/09/09 23:01:05;;;;;;;15.73;10.80;;;15.80;99.90;;;;;;9854304;30;20035;-86
2022/09/09 23:06:07;;;;;;;17.00;11.07;;;15.90;99.90;;;;;;9854765;30;20609;-82
2022/09/09 23:11:10;;;;;;;18.58;12.68;;;15.80;99.90;;;;;;9840167;30;20385;-82
2022/09/09 23:16:16;;;;;;;22.35;12.07;;;15.90;99.90;;;;;;9852063;30;20027;-83
2022/09/09 23:21:18;;;;;;;16.25;11.63;;;16.00;99.90;;;;;;9853385;30;20071;-83
2022/09/09 23:26:19;;;;;;;14.13;11.38;;;15.90;99.90;;;;;;9837164;30;20040;-84
2022/09/09 23:31:21;;;;;;;16.48;11.57;;;15.80;99.90;;;;;;9848284;30;20036;-83
2022/09/09 23:36:23;;;;;;;10.60;9.50;;;15.80;99.90;;;;;;9853447;30;20035;-83
2022/09/09 23:41:24;;;;;;;15.27;11.23;;;15.80;99.90;;;;;;9851606;30;21173;-83
2022/09/09 23:46:27;;;;;;;18.42;12.80;;;15.90;99.90;;;;;;9851136;30;20164;-85
2022/09/09 23:51:29;;;;;;;16.73;12.30;;;15.80;99.90;;;;;;9848024;30;20485;-85
2022/09/09 23:56:32;;;;;;;19.60;13.27;;;15.70;99.90;;;;;;9851051;30;20852;-84
